Nearby METAR Reports

 

KHQM - Hoquiam,WA, USA
Updated: Tue, 17-Oct-2017 4:53pm PDT
Clear
Clear
 Wind from WSW
Wind: WSW 5 mph , 7 km/h
Temperature: 57°F , 14°C
Dew Point: 43°F , 6°C
Humidity: 59%
Barometer: 30.15 inHg , 1021 hPa
Clouds: Clear
Visibility: 8 miles , 13 km
2017/10/17 23:53 KHQM 172353Z AUTO 25004KT 8SM CLR 14/06 A3015 RMK AO2 SLP214 T01390061 10150 20122 50008